createdAt,value
2022-09-25T00:01:34.157Z,16.60
2022-09-25T00:04:02.967Z,16.60
2022-09-25T00:06:33.405Z,16.60
2022-09-25T00:09:02.388Z,16.60
2022-09-25T00:11:32.836Z,16.60
2022-09-25T00:14:02.829Z,16.50
2022-09-25T00:16:33.093Z,16.50
2022-09-25T00:19:19.446Z,16.50
2022-09-25T00:21:50.175Z,16.50
2022-09-25T00:24:18.734Z,16.50
2022-09-25T00:26:47.266Z,16.50
2022-09-25T00:29:19.223Z,16.50
2022-09-25T00:31:47.760Z,16.50
2022-09-25T00:34:16.313Z,16.50
2022-09-25T00:36:44.915Z,16.50
2022-09-25T00:39:13.468Z,16.50
2022-09-25T00:41:42.090Z,16.50
2022-09-25T00:44:42.240Z,16.50
2022-09-25T00:47:13.826Z,16.40
2022-09-25T00:49:43.203Z,16.40
2022-09-25T00:52:14.085Z,16.40
2022-09-25T00:54:52.321Z,16.40
2022-09-25T00:57:25.723Z,16.40
2022-09-25T00:59:57.305Z,16.40
2022-09-25T01:02:28.983Z,16.40
2022-09-25T01:05:03.630Z,16.40
2022-09-25T01:07:34.816Z,16.40
2022-09-25T01:10:04.702Z,16.40
2022-09-25T01:12:33.596Z,16.40
2022-09-25T01:15:02.220Z,16.40
2022-09-25T01:17:45.535Z,16.40
2022-09-25T01:20:35.093Z,16.30
2022-09-25T01:23:29.139Z,16.30
2022-09-25T01:26:16.155Z,16.30
2022-09-25T01:28:59.840Z,16.30
2022-09-25T01:31:49.299Z,16.30
2022-09-25T01:34:20.920Z,16.30
2022-09-25T01:36:56.059Z,16.30
2022-09-25T01:39:32.221Z,16.20
2022-09-25T01:42:04.191Z,16.20
2022-09-25T01:44:36.027Z,16.20
2022-09-25T01:47:10.253Z,16.20
2022-09-25T01:49:44.777Z,16.30
2022-09-25T01:52:16.405Z,16.20
2022-09-25T01:54:51.822Z,16.20
2022-09-25T01:57:26.399Z,16.20
2022-09-25T02:00:03.917Z,16.20
2022-09-25T02:02:35.745Z,16.20
2022-09-25T02:05:10.311Z,16.20
2022-09-25T02:07:42.114Z,16.20
2022-09-25T02:10:19.580Z,16.20
2022-09-25T02:12:51.201Z,16.20
2022-09-25T02:15:22.886Z,16.10
2022-09-25T02:18:18.050Z,16.10
2022-09-25T02:20:50.302Z,16.10
2022-09-25T02:23:24.667Z,16.10
2022-09-25T02:26:11.917Z,16.10
2022-09-25T02:28:40.453Z,16.10
2022-09-25T02:31:12.431Z,16.10
2022-09-25T02:33:41.183Z,16.10
2022-09-25T02:36:23.071Z,16.10
2022-09-25T02:38:54.209Z,16.00
2022-09-25T02:41:34.714Z,16.00
2022-09-25T02:44:21.207Z,16.00
2022-09-25T02:46:52.839Z,15.90
2022-09-25T02:49:33.378Z,15.90
2022-09-25T02:52:07.879Z,15.90
2022-09-25T02:54:44.050Z,15.80
2022-09-25T02:57:18.479Z,15.80
2022-09-25T02:59:50.015Z,15.80
2022-09-25T03:02:19.958Z,15.80
2022-09-25T03:04:50.851Z,15.80
2022-09-25T03:07:20.737Z,15.80
2022-09-25T03:09:51.996Z,15.80
2022-09-25T03:12:20.596Z,15.80
2022-09-25T03:14:49.135Z,15.80
2022-09-25T03:17:17.795Z,15.80
2022-09-25T03:19:46.326Z,15.70
2022-09-25T03:22:14.857Z,15.80
2022-09-25T03:24:43.407Z,15.80
2022-09-25T03:27:11.944Z,15.80
2022-09-25T03:29:40.469Z,15.70
2022-09-25T03:32:10.085Z,15.70
2022-09-25T03:34:38.612Z,15.70
2022-09-25T03:37:07.180Z,15.80
2022-09-25T03:39:35.716Z,15.70
2022-09-25T03:42:05.702Z,15.70
2022-09-25T03:44:34.289Z,15.70
2022-09-25T03:47:02.800Z,15.70
2022-09-25T03:49:31.343Z,15.80
2022-09-25T03:52:00.171Z,15.80
2022-09-25T03:54:28.692Z,15.80
2022-09-25T03:56:57.804Z,15.80
2022-09-25T03:59:26.784Z,15.80
2022-09-25T04:01:55.321Z,15.70
2022-09-25T04:04:23.935Z,15.70
2022-09-25T04:06:52.463Z,15.80
2022-09-25T04:09:21.001Z,15.70
2022-09-25T04:11:50.066Z,15.80
2022-09-25T04:14:18.664Z,15.80
2022-09-25T04:16:47.295Z,15.70
2022-09-25T04:19:16.600Z,15.80
2022-09-25T04:21:45.197Z,15.70
2022-09-25T04:24:21.510Z,15.70
2022-09-25T04:26:51.725Z,15.70
2022-09-25T04:29:21.164Z,15.70
2022-09-25T04:31:51.451Z,15.70
2022-09-25T04:34:19.999Z,15.70
2022-09-25T04:36:48.533Z,15.70
2022-09-25T04:39:18.699Z,15.70
2022-09-25T04:41:47.689Z,15.60
2022-09-25T04:44:16.558Z,15.60
2022-09-25T04:46:45.176Z,15.60
2022-09-25T04:49:13.789Z,15.60
2022-09-25T04:51:42.337Z,15.60
2022-09-25T04:54:10.867Z,15.60
2022-09-25T04:56:39.324Z,15.50
2022-09-25T04:59:07.855Z,15.50
2022-09-25T05:01:36.475Z,15.50
2022-09-25T05:04:08.658Z,15.20
2022-09-25T05:06:35.371Z,15.40
2022-09-25T05:09:03.940Z,15.30
2022-09-25T05:11:32.465Z,15.30
2022-09-25T05:14:01.276Z,15.30
2022-09-25T05:16:30.760Z,15.20
2022-09-25T05:18:59.569Z,15.10
2022-09-25T05:21:28.184Z,15.00
2022-09-25T05:23:56.811Z,15.00
2022-09-25T05:26:25.572Z,15.00
2022-09-25T05:28:54.114Z,15.00
2022-09-25T05:31:22.783Z,15.00
2022-09-25T05:33:51.620Z,15.00
2022-09-25T05:36:20.291Z,15.00
2022-09-25T05:38:48.830Z,14.90
2022-09-25T05:41:17.722Z,14.90
2022-09-25T05:43:47.604Z,14.90
2022-09-25T05:46:16.566Z,14.80
2022-09-25T05:48:45.064Z,14.80
2022-09-25T05:51:13.602Z,14.80
2022-09-25T05:53:42.324Z,14.70
2022-09-25T05:56:12.227Z,14.70
2022-09-25T05:58:40.761Z,14.70
2022-09-25T06:01:09.369Z,14.60
2022-09-25T06:03:37.908Z,14.60
2022-09-25T06:06:06.904Z,14.50
2022-09-25T06:08:38.188Z,14.40
2022-09-25T06:11:08.152Z,14.40
2022-09-25T06:13:36.965Z,14.30
2022-09-25T06:16:07.869Z,14.20
2022-09-25T06:18:37.804Z,14.20
2022-09-25T06:21:06.707Z,14.10
2022-09-25T06:23:35.247Z,14.10
2022-09-25T06:26:05.231Z,14.10
2022-09-25T06:28:34.402Z,14.10
2022-09-25T06:31:04.530Z,14.20
2022-09-25T06:33:33.781Z,14.20
2022-09-25T06:36:02.433Z,14.30
2022-09-25T06:38:32.732Z,14.50
2022-09-25T06:41:01.750Z,14.70
2022-09-25T06:43:30.425Z,14.90
2022-09-25T06:46:03.072Z,15.20
2022-09-25T06:48:32.292Z,15.50
2022-09-25T06:51:01.900Z,15.90
2022-09-25T06:53:30.805Z,16.20
2022-09-25T06:56:02.727Z,16.50
2022-09-25T06:58:31.568Z,16.90
2022-09-25T07:01:00.116Z,17.10
2022-09-25T07:03:47.372Z,17.40
2022-09-25T07:06:20.006Z,17.60
2022-09-25T07:08:49.188Z,17.90
2022-09-25T07:11:22.784Z,18.20
2022-09-25T07:13:52.190Z,18.40
2022-09-25T07:38:53.391Z,18.70
2022-09-25T07:41:25.331Z,18.10
2022-09-25T07:46:31.350Z,17.60
2022-09-25T07:49:00.816Z,17.50
2022-09-25T07:51:29.361Z,17.50
2022-09-25T07:53:58.770Z,17.50
2022-09-25T07:56:27.751Z,17.50
2022-09-25T07:58:56.372Z,17.50
2022-09-25T08:01:25.005Z,17.50
2022-09-25T08:03:54.010Z,17.50
2022-09-25T08:06:22.650Z,17.60
2022-09-25T08:08:51.240Z,17.80
2022-09-25T08:11:19.941Z,18.00
2022-09-25T08:13:49.389Z,18.10
2022-09-25T08:16:21.119Z,18.30
2022-09-25T08:18:50.677Z,18.30
2022-09-25T08:21:21.446Z,18.40
2022-09-25T08:23:52.338Z,18.40
2022-09-25T08:26:22.392Z,18.50
2022-09-25T08:28:51.970Z,18.60
2022-09-25T08:31:20.638Z,18.70
2022-09-25T08:33:50.768Z,18.60
2022-09-25T08:36:19.746Z,18.40
2022-09-25T08:38:48.524Z,18.20
2022-09-25T08:41:28.789Z,18.20
2022-09-25T08:44:09.286Z,18.00
2022-09-25T08:47:07.588Z,17.90
2022-09-25T08:49:42.206Z,17.80
2022-09-25T08:52:13.880Z,17.80
2022-09-25T08:54:45.069Z,18.00
2022-09-25T08:57:31.353Z,17.90
2022-09-25T09:00:03.163Z,18.10
2022-09-25T09:02:46.987Z,18.10
2022-09-25T09:05:30.996Z,18.10
2022-09-25T09:08:08.449Z,18.10
2022-09-25T09:10:40.063Z,18.20
2022-09-25T09:13:37.153Z,18.20
2022-09-25T09:16:08.930Z,18.20
2022-09-25T09:18:40.245Z,18.10
2022-09-25T09:21:22.460Z,18.00
2022-09-25T09:24:08.997Z,18.00
2022-09-25T09:27:04.467Z,18.00
2022-09-25T09:29:45.258Z,18.00
2022-09-25T09:32:33.253Z,18.10
2022-09-25T09:35:20.644Z,18.30
2022-09-25T09:38:28.247Z,18.60
2022-09-25T16:32:30.355Z,19.00
2022-09-25T16:35:02.020Z,20.90
2022-09-25T16:37:33.635Z,20.60
2022-09-25T16:40:11.519Z,20.50
2022-09-25T16:42:40.754Z,20.50
2022-09-25T16:45:15.804Z,20.40
2022-09-25T16:47:49.201Z,20.40
2022-09-25T16:50:16.682Z,20.50
2022-09-25T16:52:45.565Z,20.50
2022-09-25T16:55:20.527Z,20.60
2022-09-25T16:57:49.082Z,20.60
2022-09-25T17:00:20.688Z,20.60
2022-09-25T17:02:49.257Z,20.60
2022-09-25T17:05:25.741Z,20.50
2022-09-25T17:07:57.339Z,20.40
2022-09-25T17:10:32.059Z,20.30
2022-09-25T17:13:02.655Z,20.10
2022-09-25T17:15:34.422Z,20.00
2022-09-25T17:18:04.172Z,19.80
2022-09-25T17:20:32.797Z,19.70
2022-09-25T17:23:01.863Z,19.50
2022-09-25T17:25:47.909Z,19.40
2022-09-25T17:28:17.298Z,19.30
2022-09-25T17:30:46.197Z,19.10
2022-09-25T17:33:20.317Z,19.00
2022-09-25T17:36:06.400Z,19.00
2022-09-25T17:38:35.497Z,18.90
2022-09-25T17:41:07.004Z,18.80
2022-09-25T17:43:35.611Z,18.80
2022-09-25T17:46:04.993Z,18.80
2022-09-25T17:48:33.939Z,18.70
2022-09-25T17:51:04.679Z,18.60
2022-09-25T17:53:34.373Z,18.60
2022-09-25T17:56:03.379Z,18.60
2022-09-25T17:58:32.596Z,18.60
2022-09-25T18:01:04.238Z,18.50
2022-09-25T18:03:32.991Z,18.50
2022-09-25T18:06:01.558Z,18.40
2022-09-25T18:08:30.951Z,18.30
2022-09-25T18:10:59.830Z,18.30
2022-09-25T18:13:28.399Z,18.20
2022-09-25T18:15:59.929Z,18.20
2022-09-25T18:18:33.042Z,18.10
2022-09-25T18:21:19.204Z,18.10
2022-09-25T18:23:47.813Z,18.00
2022-09-25T18:26:16.527Z,18.00
2022-09-25T18:28:45.065Z,17.90
2022-09-25T18:31:14.121Z,17.90
2022-09-25T18:33:47.158Z,17.80
2022-09-25T18:36:13.329Z,17.80
2022-09-25T18:38:41.866Z,17.70
2022-09-25T18:41:10.408Z,17.60
2022-09-25T18:43:38.967Z,17.50
2022-09-25T18:46:07.626Z,17.40
2022-09-25T18:48:37.382Z,17.30
2022-09-25T18:51:07.122Z,17.30
2022-09-25T18:53:35.663Z,17.20
2022-09-25T18:56:04.227Z,17.20
2022-09-25T18:58:32.763Z,17.20
2022-09-25T19:01:01.486Z,17.10
2022-09-25T19:03:30.274Z,17.10
2022-09-25T19:06:02.764Z,17.10
2022-09-25T19:08:32.335Z,17.10
2022-09-25T19:11:01.140Z,17.10
2022-09-25T19:13:30.190Z,17.10
2022-09-25T19:15:58.923Z,17.00
2022-09-25T19:18:27.494Z,17.00
2022-09-25T19:20:56.093Z,17.00
2022-09-25T19:23:26.486Z,17.00
2022-09-25T19:26:02.049Z,17.00
2022-09-25T19:28:32.233Z,17.00
2022-09-25T19:31:06.525Z,16.90
2022-09-25T19:33:37.677Z,16.90
2022-09-25T19:36:09.347Z,16.80
2022-09-25T19:38:40.087Z,16.80
2022-09-25T19:41:24.860Z,16.80
2022-09-25T19:43:57.541Z,16.80
2022-09-25T19:46:27.945Z,16.70
2022-09-25T19:49:04.538Z,16.70
2022-09-25T19:51:33.549Z,16.70
2022-09-25T19:54:02.087Z,16.70
2022-09-25T19:56:30.617Z,16.70
2022-09-25T19:58:59.164Z,16.60
2022-09-25T20:01:30.241Z,16.60
2022-09-25T20:03:58.897Z,16.50
2022-09-25T20:06:28.317Z,16.40
2022-09-25T20:09:03.590Z,16.30
2022-09-25T20:11:34.255Z,16.50
2022-09-25T20:14:04.804Z,16.20
2022-09-25T20:16:33.661Z,16.10
2022-09-25T20:19:04.592Z,16.00
2022-09-25T20:21:38.181Z,15.90
2022-09-25T20:24:08.749Z,15.90
2022-09-25T20:26:38.024Z,15.80
2022-09-25T20:29:12.802Z,15.70
2022-09-25T20:31:43.309Z,15.60
2022-09-25T20:34:17.603Z,15.60
2022-09-25T20:36:47.015Z,15.50
2022-09-25T20:39:20.461Z,15.50
2022-09-25T20:41:45.843Z,15.50
2022-09-25T20:44:14.423Z,15.50
2022-09-25T20:46:43.089Z,15.40
2022-09-25T20:49:13.129Z,15.40
2022-09-25T20:51:42.107Z,15.40
2022-09-25T20:54:11.382Z,15.40
2022-09-25T20:56:44.759Z,15.40
2022-09-25T20:59:15.328Z,15.30
2022-09-25T21:01:43.926Z,15.30
2022-09-25T21:04:12.619Z,15.30
2022-09-25T21:06:42.761Z,15.20
2022-09-25T21:09:17.243Z,15.20
2022-09-25T21:11:45.781Z,15.20
2022-09-25T21:14:19.725Z,15.10
2022-09-25T21:16:49.445Z,15.10
2022-09-25T21:19:19.839Z,15.10
2022-09-25T21:21:49.137Z,15.10
2022-09-25T21:24:20.213Z,15.10
2022-09-25T21:26:49.816Z,15.10
2022-09-25T21:29:18.675Z,15.10
2022-09-25T21:31:50.356Z,15.00
2022-09-25T21:34:18.110Z,15.00
2022-09-25T21:36:47.088Z,15.00
2022-09-25T21:39:16.070Z,15.00
2022-09-25T21:41:45.010Z,15.00
2022-09-25T21:44:15.497Z,15.00
2022-09-25T21:46:44.580Z,15.00
2022-09-25T21:49:21.601Z,14.90
2022-09-25T21:51:50.956Z,14.90
2022-09-25T21:54:19.574Z,14.90
2022-09-25T21:56:49.064Z,14.90
2022-09-25T21:59:18.225Z,14.90
2022-09-25T22:01:46.800Z,14.90
2022-09-25T22:04:16.034Z,14.90
2022-09-25T22:06:47.393Z,14.80
2022-09-25T22:09:18.994Z,14.90
2022-09-25T22:11:48.269Z,14.90
2022-09-25T22:14:17.139Z,14.90
2022-09-25T22:16:48.619Z,14.90
2022-09-25T22:19:20.349Z,14.90
2022-09-25T22:21:50.642Z,14.90
2022-09-25T22:24:19.912Z,14.90
2022-09-25T22:26:51.338Z,14.90
2022-09-25T22:29:21.024Z,14.90
2022-09-25T22:31:49.570Z,14.90
2022-09-25T22:34:24.140Z,14.90
2022-09-25T22:36:58.628Z,14.90
2022-09-25T22:39:23.905Z,14.90
2022-09-25T22:41:53.495Z,14.90
2022-09-25T22:44:22.489Z,14.80
2022-09-25T22:46:51.131Z,14.80
2022-09-25T22:49:19.679Z,14.80
2022-09-25T22:51:48.349Z,14.70
2022-09-25T22:54:17.639Z,14.70
2022-09-25T22:56:46.248Z,14.60
2022-09-25T22:59:18.552Z,14.50
2022-09-25T23:01:50.280Z,14.50
2022-09-25T23:04:22.220Z,14.40
2022-09-25T23:06:51.099Z,14.40
2022-09-25T23:09:22.368Z,14.30
2022-09-25T23:11:50.920Z,14.30
2022-09-25T23:14:25.253Z,14.20
2022-09-25T23:16:55.106Z,14.10
2022-09-25T23:19:24.675Z,14.10
2022-09-25T23:21:54.690Z,14.00
2022-09-25T23:24:24.555Z,14.00
2022-09-25T23:26:54.090Z,14.00
2022-09-25T23:29:23.667Z,14.00
2022-09-25T23:31:52.854Z,13.90
2022-09-25T23:34:21.599Z,13.90
2022-09-25T23:36:50.136Z,13.90
2022-09-25T23:39:20.904Z,13.90
2022-09-25T23:41:49.514Z,13.90
2022-09-25T23:44:18.117Z,13.90
2022-09-25T23:46:46.751Z,13.90
2022-09-25T23:49:15.987Z,13.90
2022-09-25T23:51:46.149Z,14.00
2022-09-25T23:54:14.845Z,14.00
2022-09-25T23:56:43.825Z,14.10
2022-09-25T23:59:13.782Z,14.10
